sensor_id;sensor_type;location;lat;lon;timestamp;P1;durP1;ratioP1;P2;durP2;ratioP2
53654;SDS011;39558;52.028;8.536;2023-12-20T00:00:34;0.25;;;0.20;;
53654;SDS011;39558;52.028;8.536;2023-12-20T00:03:00;0.43;;;0.20;;
53654;SDS011;39558;52.028;8.536;2023-12-20T00:05:26;0.40;;;0.30;;
53654;SDS011;39558;52.028;8.536;2023-12-20T00:07:52;0.80;;;0.30;;
53654;SDS011;39558;52.028;8.536;2023-12-20T00:10:18;1.05;;;0.30;;
53654;SDS011;39558;52.028;8.536;2023-12-20T00:12:44;1.00;;;0.30;;
53654;SDS011;39558;52.028;8.536;2023-12-20T00:15:10;0.40;;;0.30;;
53654;SDS011;39558;52.028;8.536;2023-12-20T00:17:36;0.32;;;0.20;;
53654;SDS011;39558;52.028;8.536;2023-12-20T00:20:02;0.65;;;0.20;;
53654;SDS011;39558;52.028;8.536;2023-12-20T00:22:28;0.63;;;0.20;;
53654;SDS011;39558;52.028;8.536;2023-12-20T00:24:54;0.80;;;0.20;;
53654;SDS011;39558;52.028;8.536;2023-12-20T00:27:19;0.73;;;0.20;;
53654;SDS011;39558;52.028;8.536;2023-12-20T00:29:45;0.45;;;0.20;;
53654;SDS011;39558;52.028;8.536;2023-12-20T00:32:14;0.43;;;0.20;;
53654;SDS011;39558;52.028;8.536;2023-12-20T00:34:40;0.95;;;0.30;;
53654;SDS011;39558;52.028;8.536;2023-12-20T00:37:06;0.20;;;0.10;;
53654;SDS011;39558;52.028;8.536;2023-12-20T00:39:32;0.77;;;0.50;;
53654;SDS011;39558;52.028;8.536;2023-12-20T00:41:58;0.40;;;0.20;;
53654;SDS011;39558;52.028;8.536;2023-12-20T00:44:24;0.20;;;0.10;;
53654;SDS011;39558;52.028;8.536;2023-12-20T00:46:49;0.40;;;0.20;;
53654;SDS011;39558;52.028;8.536;2023-12-20T00:49:16;1.13;;;0.73;;
53654;SDS011;39558;52.028;8.536;2023-12-20T00:51:42;0.77;;;0.30;;
53654;SDS011;39558;52.028;8.536;2023-12-20T00:54:08;0.85;;;0.35;;
53654;SDS011;39558;52.028;8.536;2023-12-20T00:56:34;0.80;;;0.32;;
53654;SDS011;39558;52.028;8.536;2023-12-20T00:59:00;0.45;;;0.20;;
53654;SDS011;39558;52.028;8.536;2023-12-20T01:01:26;0.10;;;0.10;;
53654;SDS011;39558;52.028;8.536;2023-12-20T01:03:52;2.00;;;0.20;;
53654;SDS011;39558;52.028;8.536;2023-12-20T01:06:18;0.35;;;0.17;;
53654;SDS011;39558;52.028;8.536;2023-12-20T01:08:44;0.32;;;0.17;;
53654;SDS011;39558;52.028;8.536;2023-12-20T01:11:10;0.22;;;0.13;;
53654;SDS011;39558;52.028;8.536;2023-12-20T01:13:36;0.43;;;0.30;;
53654;SDS011;39558;52.028;8.536;2023-12-20T01:16:02;0.55;;;0.20;;
53654;SDS011;39558;52.028;8.536;2023-12-20T01:18:28;0.10;;;0.10;;
53654;SDS011;39558;52.028;8.536;2023-12-20T01:20:54;0.10;;;0.10;;
53654;SDS011;39558;52.028;8.536;2023-12-20T01:23:20;0.30;;;0.13;;
53654;SDS011;39558;52.028;8.536;2023-12-20T01:25:46;0.40;;;0.10;;
53654;SDS011;39558;52.028;8.536;2023-12-20T01:28:12;0.20;;;0.10;;
53654;SDS011;39558;52.028;8.536;2023-12-20T01:30:38;0.30;;;0.10;;
53654;SDS011;39558;52.028;8.536;2023-12-20T01:33:04;0.17;;;0.10;;
53654;SDS011;39558;52.028;8.536;2023-12-20T01:35:30;0.32;;;0.20;;
53654;SDS011;39558;52.028;8.536;2023-12-20T01:37:56;0.45;;;0.20;;
53654;SDS011;39558;52.028;8.536;2023-12-20T01:40:22;0.60;;;0.20;;
53654;SDS011;39558;52.028;8.536;2023-12-20T01:42:57;0.40;;;0.15;;
53654;SDS011;39558;52.028;8.536;2023-12-20T01:45:24;0.20;;;0.10;;
53654;SDS011;39558;52.028;8.536;2023-12-20T01:47:50;0.13;;;0.13;;
53654;SDS011;39558;52.028;8.536;2023-12-20T01:50:16;0.52;;;0.25;;
53654;SDS011;39558;52.028;8.536;2023-12-20T01:52:42;0.22;;;0.17;;
53654;SDS011;39558;52.028;8.536;2023-12-20T01:55:09;0.68;;;0.10;;
53654;SDS011;39558;52.028;8.536;2023-12-20T01:57:39;1.13;;;0.25;;
53654;SDS011;39558;52.028;8.536;2023-12-20T02:00:05;0.50;;;0.15;;
53654;SDS011;39558;52.028;8.536;2023-12-20T02:02:33;0.63;;;0.20;;
53654;SDS011;39558;52.028;8.536;2023-12-20T02:04:58;0.57;;;0.20;;
53654;SDS011;39558;52.028;8.536;2023-12-20T02:07:24;0.32;;;0.20;;
53654;SDS011;39558;52.028;8.536;2023-12-20T02:09:51;1.55;;;0.30;;
53654;SDS011;39558;52.028;8.536;2023-12-20T02:12:18;0.60;;;0.20;;
53654;SDS011;39558;52.028;8.536;2023-12-20T02:14:44;0.22;;;0.10;;
53654;SDS011;39558;52.028;8.536;2023-12-20T02:17:10;0.10;;;0.08;;
53654;SDS011;39558;52.028;8.536;2023-12-20T02:19:36;0.10;;;0.10;;
53654;SDS011;39558;52.028;8.536;2023-12-20T02:22:11;0.17;;;0.10;;
53654;SDS011;39558;52.028;8.536;2023-12-20T02:24:37;0.00;;;0.00;;
53654;SDS011;39558;52.028;8.536;2023-12-20T02:27:03;0.28;;;0.10;;
53654;SDS011;39558;52.028;8.536;2023-12-20T02:29:31;0.10;;;0.10;;
53654;SDS011;39558;52.028;8.536;2023-12-20T02:31:57;0.22;;;0.10;;
53654;SDS011;39558;52.028;8.536;2023-12-20T02:34:23;0.45;;;0.10;;
53654;SDS011;39558;52.028;8.536;2023-12-20T02:36:49;0.30;;;0.20;;
53654;SDS011;39558;52.028;8.536;2023-12-20T02:39:15;0.20;;;0.13;;
53654;SDS011;39558;52.028;8.536;2023-12-20T02:41:41;0.20;;;0.10;;
53654;SDS011;39558;52.028;8.536;2023-12-20T02:44:07;0.43;;;0.22;;
53654;SDS011;39558;52.028;8.536;2023-12-20T02:46:33;0.60;;;0.10;;
53654;SDS011;39558;52.028;8.536;2023-12-20T02:48:59;0.40;;;0.20;;
53654;SDS011;39558;52.028;8.536;2023-12-20T02:51:25;0.32;;;0.10;;
53654;SDS011;39558;52.028;8.536;2023-12-20T02:53:50;0.10;;;0.10;;
53654;SDS011;39558;52.028;8.536;2023-12-20T02:56:16;0.13;;;0.08;;
53654;SDS011;39558;52.028;8.536;2023-12-20T02:58:42;0.32;;;0.10;;
53654;SDS011;39558;52.028;8.536;2023-12-20T03:01:08;0.93;;;0.20;;
53654;SDS011;39558;52.028;8.536;2023-12-20T03:03:34;0.20;;;0.10;;
53654;SDS011;39558;52.028;8.536;2023-12-20T03:06:00;0.10;;;0.00;;
53654;SDS011;39558;52.028;8.536;2023-12-20T03:08:26;0.20;;;0.10;;
53654;SDS011;39558;52.028;8.536;2023-12-20T03:10:52;0.30;;;0.20;;
53654;SDS011;39558;52.028;8.536;2023-12-20T03:13:18;0.45;;;0.10;;
53654;SDS011;39558;52.028;8.536;2023-12-20T03:15:44;0.25;;;0.10;;
53654;SDS011;39558;52.028;8.536;2023-12-20T03:18:10;0.80;;;0.17;;
53654;SDS011;39558;52.028;8.536;2023-12-20T03:20:36;0.30;;;0.10;;
53654;SDS011;39558;52.028;8.536;2023-12-20T03:23:02;0.10;;;0.10;;
53654;SDS011;39558;52.028;8.536;2023-12-20T03:25:28;0.60;;;0.13;;
53654;SDS011;39558;52.028;8.536;2023-12-20T03:27:54;0.10;;;0.00;;
53654;SDS011;39558;52.028;8.536;2023-12-20T03:30:20;0.60;;;0.08;;
53654;SDS011;39558;52.028;8.536;2023-12-20T03:32:46;0.52;;;0.30;;
53654;SDS011;39558;52.028;8.536;2023-12-20T03:35:12;0.10;;;0.10;;
53654;SDS011;39558;52.028;8.536;2023-12-20T03:37:38;0.43;;;0.20;;
53654;SDS011;39558;52.028;8.536;2023-12-20T03:40:04;0.17;;;0.10;;
53654;SDS011;39558;52.028;8.536;2023-12-20T03:42:30;0.22;;;0.00;;
53654;SDS011;39558;52.028;8.536;2023-12-20T03:44:56;0.57;;;0.05;;
53654;SDS011;39558;52.028;8.536;2023-12-20T03:47:22;0.28;;;0.10;;
53654;SDS011;39558;52.028;8.536;2023-12-20T03:49:48;0.32;;;0.15;;
53654;SDS011;39558;52.028;8.536;2023-12-20T03:52:14;0.30;;;0.10;;
53654;SDS011;39558;52.028;8.536;2023-12-20T03:54:39;0.22;;;0.10;;
53654;SDS011;39558;52.028;8.536;2023-12-20T03:57:09;0.10;;;0.10;;
53654;SDS011;39558;52.028;8.536;2023-12-20T03:59:35;0.35;;;0.10;;
53654;SDS011;39558;52.028;8.536;2023-12-20T04:02:01;1.30;;;0.20;;
53654;SDS011;39558;52.028;8.536;2023-12-20T04:04:27;1.13;;;0.22;;
53654;SDS011;39558;52.028;8.536;2023-12-20T04:06:53;0.05;;;0.05;;
53654;SDS011;39558;52.028;8.536;2023-12-20T04:09:19;0.15;;;0.03;;
53654;SDS011;39558;52.028;8.536;2023-12-20T04:11:45;1.85;;;0.10;;
53654;SDS011;39558;52.028;8.536;2023-12-20T04:14:11;0.98;;;0.15;;
53654;SDS011;39558;52.028;8.536;2023-12-20T04:16:37;0.68;;;0.10;;
53654;SDS011;39558;52.028;8.536;2023-12-20T04:19:04;1.27;;;0.10;;
53654;SDS011;39558;52.028;8.536;2023-12-20T04:21:29;0.52;;;0.20;;
53654;SDS011;39558;52.028;8.536;2023-12-20T04:23:56;0.77;;;0.13;;
53654;SDS011;39558;52.028;8.536;2023-12-20T04:26:22;2.35;;;0.20;;
53654;SDS011;39558;52.028;8.536;2023-12-20T04:28:48;1.23;;;0.30;;
53654;SDS011;39558;52.028;8.536;2023-12-20T04:31:13;0.35;;;0.20;;
53654;SDS011;39558;52.028;8.536;2023-12-20T04:33:39;0.75;;;0.20;;
53654;SDS011;39558;52.028;8.536;2023-12-20T04:36:05;1.65;;;0.30;;
53654;SDS011;39558;52.028;8.536;2023-12-20T04:38:31;0.88;;;0.40;;
53654;SDS011;39558;52.028;8.536;2023-12-20T04:40:57;2.83;;;0.30;;
53654;SDS011;39558;52.028;8.536;2023-12-20T04:43:24;0.52;;;0.10;;
53654;SDS011;39558;52.028;8.536;2023-12-20T04:45:50;0.60;;;0.20;;
53654;SDS011;39558;52.028;8.536;2023-12-20T04:48:15;0.80;;;0.10;;
53654;SDS011;39558;52.028;8.536;2023-12-20T04:50:41;0.32;;;0.10;;
53654;SDS011;39558;52.028;8.536;2023-12-20T04:53:07;1.23;;;0.38;;
53654;SDS011;39558;52.028;8.536;2023-12-20T04:55:33;0.90;;;0.20;;
53654;SDS011;39558;52.028;8.536;2023-12-20T04:57:59;1.13;;;0.47;;
53654;SDS011;39558;52.028;8.536;2023-12-20T05:00:25;1.58;;;0.20;;
53654;SDS011;39558;52.028;8.536;2023-12-20T05:02:51;1.20;;;0.10;;
53654;SDS011;39558;52.028;8.536;2023-12-20T05:05:17;2.80;;;0.30;;
53654;SDS011;39558;52.028;8.536;2023-12-20T05:07:43;0.68;;;0.30;;
53654;SDS011;39558;52.028;8.536;2023-12-20T05:10:09;0.95;;;0.20;;
53654;SDS011;39558;52.028;8.536;2023-12-20T05:12:35;2.42;;;0.50;;
53654;SDS011;39558;52.028;8.536;2023-12-20T05:15:01;1.95;;;0.40;;
53654;SDS011;39558;52.028;8.536;2023-12-20T05:17:27;0.88;;;0.13;;
53654;SDS011;39558;52.028;8.536;2023-12-20T05:19:53;1.38;;;0.30;;
53654;SDS011;39558;52.028;8.536;2023-12-20T05:22:19;1.45;;;0.38;;
53654;SDS011;39558;52.028;8.536;2023-12-20T05:24:45;2.70;;;0.40;;
53654;SDS011;39558;52.028;8.536;2023-12-20T05:27:11;1.23;;;0.45;;
53654;SDS011;39558;52.028;8.536;2023-12-20T05:29:37;2.35;;;0.32;;
53654;SDS011;39558;52.028;8.536;2023-12-20T05:32:03;2.05;;;0.40;;
53654;SDS011;39558;52.028;8.536;2023-12-20T05:34:32;1.85;;;0.30;;
53654;SDS011;39558;52.028;8.536;2023-12-20T05:36:58;1.17;;;0.22;;
53654;SDS011;39558;52.028;8.536;2023-12-20T05:39:24;1.42;;;0.22;;
53654;SDS011;39558;52.028;8.536;2023-12-20T05:41:50;1.45;;;0.40;;
53654;SDS011;39558;52.028;8.536;2023-12-20T05:44:16;1.48;;;0.28;;
53654;SDS011;39558;52.028;8.536;2023-12-20T05:46:42;1.17;;;0.30;;
53654;SDS011;39558;52.028;8.536;2023-12-20T05:49:08;1.30;;;0.30;;
53654;SDS011;39558;52.028;8.536;2023-12-20T05:51:35;0.77;;;0.13;;
53654;SDS011;39558;52.028;8.536;2023-12-20T05:54:01;2.00;;;0.30;;
53654;SDS011;39558;52.028;8.536;2023-12-20T05:56:27;1.42;;;0.30;;
53654;SDS011;39558;52.028;8.536;2023-12-20T05:58:53;1.75;;;0.32;;
53654;SDS011;39558;52.028;8.536;2023-12-20T06:01:19;1.33;;;0.40;;
53654;SDS011;39558;52.028;8.536;2023-12-20T06:03:45;2.30;;;0.50;;
53654;SDS011;39558;52.028;8.536;2023-12-20T06:06:11;1.33;;;0.30;;
53654;SDS011;39558;52.028;8.536;2023-12-20T06:08:37;0.55;;;0.20;;
53654;SDS011;39558;52.028;8.536;2023-12-20T06:11:04;2.72;;;0.60;;
53654;SDS011;39558;52.028;8.536;2023-12-20T06:13:30;0.98;;;0.32;;
53654;SDS011;39558;52.028;8.536;2023-12-20T06:15:56;4.90;;;0.52;;
53654;SDS011;39558;52.028;8.536;2023-12-20T06:18:22;1.75;;;0.43;;
53654;SDS011;39558;52.028;8.536;2023-12-20T06:20:48;2.38;;;0.43;;
53654;SDS011;39558;52.028;8.536;2023-12-20T06:23:14;1.83;;;0.30;;
53654;SDS011;39558;52.028;8.536;2023-12-20T06:25:40;2.38;;;0.60;;
53654;SDS011;39558;52.028;8.536;2023-12-20T06:28:06;3.13;;;0.95;;
53654;SDS011;39558;52.028;8.536;2023-12-20T06:30:32;1.15;;;0.35;;
53654;SDS011;39558;52.028;8.536;2023-12-20T06:32:59;4.28;;;0.68;;
53654;SDS011;39558;52.028;8.536;2023-12-20T06:35:25;1.48;;;0.25;;
53654;SDS011;39558;52.028;8.536;2023-12-20T06:37:50;4.75;;;0.50;;
53654;SDS011;39558;52.028;8.536;2023-12-20T06:40:17;3.28;;;0.65;;
53654;SDS011;39558;52.028;8.536;2023-12-20T06:42:44;1.55;;;0.30;;
53654;SDS011;39558;52.028;8.536;2023-12-20T06:45:10;2.25;;;0.50;;
53654;SDS011;39558;52.028;8.536;2023-12-20T06:47:35;1.42;;;0.40;;
53654;SDS011;39558;52.028;8.536;2023-12-20T06:50:01;1.50;;;0.30;;
53654;SDS011;39558;52.028;8.536;2023-12-20T06:52:27;1.95;;;0.20;;
53654;SDS011;39558;52.028;8.536;2023-12-20T06:54:53;0.50;;;0.25;;
53654;SDS011;39558;52.028;8.536;2023-12-20T06:57:19;1.77;;;0.30;;
53654;SDS011;39558;52.028;8.536;2023-12-20T06:59:45;2.17;;;0.38;;
53654;SDS011;39558;52.028;8.536;2023-12-20T07:02:11;1.75;;;0.60;;
53654;SDS011;39558;52.028;8.536;2023-12-20T07:04:40;1.35;;;0.38;;
53654;SDS011;39558;52.028;8.536;2023-12-20T07:07:06;1.58;;;0.50;;
53654;SDS011;39558;52.028;8.536;2023-12-20T07:09:32;1.95;;;0.35;;
53654;SDS011;39558;52.028;8.536;2023-12-20T07:11:58;1.70;;;0.40;;
53654;SDS011;39558;52.028;8.536;2023-12-20T07:14:23;1.75;;;0.35;;
53654;SDS011;39558;52.028;8.536;2023-12-20T07:16:49;2.35;;;0.32;;
53654;SDS011;39558;52.028;8.536;2023-12-20T07:19:15;2.30;;;0.38;;
53654;SDS011;39558;52.028;8.536;2023-12-20T07:21:41;0.80;;;0.28;;
53654;SDS011;39558;52.028;8.536;2023-12-20T07:24:07;2.17;;;0.30;;
53654;SDS011;39558;52.028;8.536;2023-12-20T07:26:33;2.60;;;0.80;;
53654;SDS011;39558;52.028;8.536;2023-12-20T07:28:59;4.18;;;0.43;;
53654;SDS011;39558;52.028;8.536;2023-12-20T07:31:25;2.53;;;0.45;;
53654;SDS011;39558;52.028;8.536;2023-12-20T07:33:51;2.55;;;0.30;;
53654;SDS011;39558;52.028;8.536;2023-12-20T07:36:16;1.08;;;0.38;;
53654;SDS011;39558;52.028;8.536;2023-12-20T07:38:42;1.45;;;0.35;;
53654;SDS011;39558;52.028;8.536;2023-12-20T07:41:12;1.20;;;0.35;;
53654;SDS011;39558;52.028;8.536;2023-12-20T07:43:38;2.47;;;0.95;;
53654;SDS011;39558;52.028;8.536;2023-12-20T07:46:07;1.13;;;0.30;;
53654;SDS011;39558;52.028;8.536;2023-12-20T07:48:36;3.50;;;0.80;;
53654;SDS011;39558;52.028;8.536;2023-12-20T07:51:03;1.92;;;0.40;;
53654;SDS011;39558;52.028;8.536;2023-12-20T07:53:30;1.50;;;0.40;;
53654;SDS011;39558;52.028;8.536;2023-12-20T07:55:56;1.60;;;0.43;;
53654;SDS011;39558;52.028;8.536;2023-12-20T07:58:22;2.60;;;0.80;;
53654;SDS011;39558;52.028;8.536;2023-12-20T08:00:48;1.38;;;0.28;;
53654;SDS011;39558;52.028;8.536;2023-12-20T08:03:14;1.90;;;0.20;;
53654;SDS011;39558;52.028;8.536;2023-12-20T08:05:40;1.35;;;0.32;;
53654;SDS011;39558;52.028;8.536;2023-12-20T08:08:06;2.35;;;0.40;;
53654;SDS011;39558;52.028;8.536;2023-12-20T08:10:32;2.63;;;0.70;;
53654;SDS011;39558;52.028;8.536;2023-12-20T08:12:58;3.10;;;0.45;;
53654;SDS011;39558;52.028;8.536;2023-12-20T08:15:24;1.23;;;0.35;;
53654;SDS011;39558;52.028;8.536;2023-12-20T08:17:49;2.22;;;0.30;;
53654;SDS011;39558;52.028;8.536;2023-12-20T08:20:15;3.67;;;0.50;;
53654;SDS011;39558;52.028;8.536;2023-12-20T08:22:42;1.27;;;0.35;;
53654;SDS011;39558;52.028;8.536;2023-12-20T08:25:07;2.47;;;0.45;;
53654;SDS011;39558;52.028;8.536;2023-12-20T08:27:33;1.48;;;0.40;;
53654;SDS011;39558;52.028;8.536;2023-12-20T08:29:59;1.58;;;0.47;;
53654;SDS011;39558;52.028;8.536;2023-12-20T08:32:26;0.55;;;0.20;;
53654;SDS011;39558;52.028;8.536;2023-12-20T08:34:52;1.42;;;0.35;;
53654;SDS011;39558;52.028;8.536;2023-12-20T08:37:18;1.58;;;0.40;;
53654;SDS011;39558;52.028;8.536;2023-12-20T08:39:43;1.38;;;0.55;;
53654;SDS011;39558;52.028;8.536;2023-12-20T08:42:09;2.70;;;0.43;;
53654;SDS011;39558;52.028;8.536;2023-12-20T08:44:35;2.63;;;0.52;;
53654;SDS011;39558;52.028;8.536;2023-12-20T08:47:01;2.33;;;0.40;;
53654;SDS011;39558;52.028;8.536;2023-12-20T08:49:27;3.75;;;0.60;;
53654;SDS011;39558;52.028;8.536;2023-12-20T08:51:53;1.90;;;0.57;;
53654;SDS011;39558;52.028;8.536;2023-12-20T08:54:19;1.10;;;0.20;;
53654;SDS011;39558;52.028;8.536;2023-12-20T08:56:45;2.25;;;0.40;;
53654;SDS011;39558;52.028;8.536;2023-12-20T08:59:11;2.20;;;0.60;;
53654;SDS011;39558;52.028;8.536;2023-12-20T09:01:37;1.60;;;0.35;;
53654;SDS011;39558;52.028;8.536;2023-12-20T09:04:03;2.95;;;0.50;;
53654;SDS011;39558;52.028;8.536;2023-12-20T09:06:29;3.53;;;0.30;;
53654;SDS011;39558;52.028;8.536;2023-12-20T09:08:55;3.47;;;0.60;;
53654;SDS011;39558;52.028;8.536;2023-12-20T09:11:21;2.63;;;0.73;;
53654;SDS011;39558;52.028;8.536;2023-12-20T09:13:46;1.23;;;0.40;;
53654;SDS011;39558;52.028;8.536;2023-12-20T09:16:12;0.80;;;0.40;;
53654;SDS011;39558;52.028;8.536;2023-12-20T09:18:40;2.70;;;0.50;;
53654;SDS011;39558;52.028;8.536;2023-12-20T09:21:06;3.90;;;0.85;;
53654;SDS011;39558;52.028;8.536;2023-12-20T09:23:32;1.95;;;0.60;;
53654;SDS011;39558;52.028;8.536;2023-12-20T09:25:58;3.88;;;0.40;;
53654;SDS011;39558;52.028;8.536;2023-12-20T09:28:27;1.75;;;0.50;;
53654;SDS011;39558;52.028;8.536;2023-12-20T09:30:53;1.60;;;0.40;;
53654;SDS011;39558;52.028;8.536;2023-12-20T09:33:19;2.45;;;0.63;;
53654;SDS011;39558;52.028;8.536;2023-12-20T09:35:45;3.05;;;0.30;;
53654;SDS011;39558;52.028;8.536;2023-12-20T09:38:11;3.00;;;0.32;;
53654;SDS011;39558;52.028;8.536;2023-12-20T09:40:39;1.48;;;0.35;;
53654;SDS011;39558;52.028;8.536;2023-12-20T09:43:11;1.45;;;0.60;;
53654;SDS011;39558;52.028;8.536;2023-12-20T09:45:38;2.45;;;0.40;;
53654;SDS011;39558;52.028;8.536;2023-12-20T09:48:05;2.15;;;0.40;;
53654;SDS011;39558;52.028;8.536;2023-12-20T09:50:31;1.70;;;0.40;;
53654;SDS011;39558;52.028;8.536;2023-12-20T09:52:58;2.45;;;0.40;;
53654;SDS011;39558;52.028;8.536;2023-12-20T09:55:24;1.42;;;0.40;;
53654;SDS011;39558;52.028;8.536;2023-12-20T09:57:50;2.30;;;0.50;;
53654;SDS011;39558;52.028;8.536;2023-12-20T10:00:16;3.35;;;0.60;;
53654;SDS011;39558;52.028;8.536;2023-12-20T10:02:49;1.65;;;0.40;;
53654;SDS011;39558;52.028;8.536;2023-12-20T10:05:16;1.30;;;0.40;;
53654;SDS011;39558;52.028;8.536;2023-12-20T10:07:48;2.80;;;0.77;;
53654;SDS011;39558;52.028;8.536;2023-12-20T10:10:14;2.85;;;0.60;;
53654;SDS011;39558;52.028;8.536;2023-12-20T10:12:40;3.55;;;0.68;;
53654;SDS011;39558;52.028;8.536;2023-12-20T10:15:06;3.10;;;0.85;;
53654;SDS011;39558;52.028;8.536;2023-12-20T10:17:32;2.10;;;0.50;;
53654;SDS011;39558;52.028;8.536;2023-12-20T10:19:58;1.27;;;0.35;;
53654;SDS011;39558;52.028;8.536;2023-12-20T10:22:24;1.27;;;0.50;;
53654;SDS011;39558;52.028;8.536;2023-12-20T10:24:50;2.28;;;0.40;;
53654;SDS011;39558;52.028;8.536;2023-12-20T10:27:16;3.13;;;0.70;;
53654;SDS011;39558;52.028;8.536;2023-12-20T10:29:44;3.38;;;0.50;;
53654;SDS011;39558;52.028;8.536;2023-12-20T10:32:26;2.92;;;0.60;;
53654;SDS011;39558;52.028;8.536;2023-12-20T10:34:53;5.55;;;0.60;;
53654;SDS011;39558;52.028;8.536;2023-12-20T10:37:19;1.25;;;0.43;;
53654;SDS011;39558;52.028;8.536;2023-12-20T10:39:52;2.92;;;0.88;;
53654;SDS011;39558;52.028;8.536;2023-12-20T10:42:21;1.67;;;0.65;;
53654;SDS011;39558;52.028;8.536;2023-12-20T10:44:47;4.97;;;0.70;;
53654;SDS011;39558;52.028;8.536;2023-12-20T10:47:15;3.67;;;0.47;;
53654;SDS011;39558;52.028;8.536;2023-12-20T10:49:40;0.93;;;0.30;;
53654;SDS011;39558;52.028;8.536;2023-12-20T10:52:07;1.25;;;0.63;;
53654;SDS011;39558;52.028;8.536;2023-12-20T10:54:34;2.97;;;0.90;;
53654;SDS011;39558;52.028;8.536;2023-12-20T10:57:00;4.18;;;0.63;;
53654;SDS011;39558;52.028;8.536;2023-12-20T10:59:29;0.88;;;0.28;;
53654;SDS011;39558;52.028;8.536;2023-12-20T11:01:57;4.00;;;0.70;;
53654;SDS011;39558;52.028;8.536;2023-12-20T11:04:25;3.53;;;0.55;;
53654;SDS011;39558;52.028;8.536;2023-12-20T11:06:56;3.90;;;0.70;;
53654;SDS011;39558;52.028;8.536;2023-12-20T11:09:25;1.13;;;0.45;;
53654;SDS011;39558;52.028;8.536;2023-12-20T11:12:09;1.35;;;0.38;;
53654;SDS011;39558;52.028;8.536;2023-12-20T11:14:47;2.45;;;0.47;;
53654;SDS011;39558;52.028;8.536;2023-12-20T11:17:13;1.65;;;0.40;;
53654;SDS011;39558;52.028;8.536;2023-12-20T11:22:26;3.42;;;0.38;;
53654;SDS011;39558;52.028;8.536;2023-12-20T11:24:53;3.28;;;0.60;;
53654;SDS011;39558;52.028;8.536;2023-12-20T11:27:20;1.83;;;0.47;;
53654;SDS011;39558;52.028;8.536;2023-12-20T11:29:54;2.67;;;0.63;;
53654;SDS011;39558;52.028;8.536;2023-12-20T11:34:47;2.97;;;0.57;;
53654;SDS011;39558;52.028;8.536;2023-12-20T11:37:13;2.67;;;0.80;;
53654;SDS011;39558;52.028;8.536;2023-12-20T11:39:39;2.38;;;0.70;;
53654;SDS011;39558;52.028;8.536;2023-12-20T11:42:05;2.00;;;0.52;;
53654;SDS011;39558;52.028;8.536;2023-12-20T11:44:31;1.60;;;0.40;;
53654;SDS011;39558;52.028;8.536;2023-12-20T11:46:57;3.38;;;0.55;;
53654;SDS011;39558;52.028;8.536;2023-12-20T11:49:23;1.70;;;0.55;;
53654;SDS011;39558;52.028;8.536;2023-12-20T11:51:50;7.00;;;1.00;;
53654;SDS011;39558;52.028;8.536;2023-12-20T11:54:16;2.05;;;0.50;;
53654;SDS011;39558;52.028;8.536;2023-12-20T11:56:42;7.32;;;0.98;;
53654;SDS011;39558;52.028;8.536;2023-12-20T11:59:08;2.83;;;0.50;;
53654;SDS011;39558;52.028;8.536;2023-12-20T12:01:36;3.42;;;0.68;;
53654;SDS011;39558;52.028;8.536;2023-12-20T12:04:03;2.90;;;0.70;;
53654;SDS011;39558;52.028;8.536;2023-12-20T12:06:28;2.47;;;0.50;;
53654;SDS011;39558;52.028;8.536;2023-12-20T12:08:54;2.63;;;0.55;;
53654;SDS011;39558;52.028;8.536;2023-12-20T12:11:20;2.35;;;0.47;;
53654;SDS011;39558;52.028;8.536;2023-12-20T12:13:46;3.88;;;0.70;;
53654;SDS011;39558;52.028;8.536;2023-12-20T12:16:13;2.38;;;0.50;;
53654;SDS011;39558;52.028;8.536;2023-12-20T12:18:42;1.85;;;0.38;;
53654;SDS011;39558;52.028;8.536;2023-12-20T12:21:08;3.00;;;0.57;;
53654;SDS011;39558;52.028;8.536;2023-12-20T12:23:34;2.88;;;0.57;;
53654;SDS011;39558;52.028;8.536;2023-12-20T12:26:03;2.85;;;0.70;;
53654;SDS011;39558;52.028;8.536;2023-12-20T12:28:29;2.63;;;0.80;;
53654;SDS011;39558;52.028;8.536;2023-12-20T12:30:57;2.00;;;0.50;;
53654;SDS011;39558;52.028;8.536;2023-12-20T12:33:24;2.97;;;0.55;;
53654;SDS011;39558;52.028;8.536;2023-12-20T12:35:51;2.13;;;0.45;;
53654;SDS011;39558;52.028;8.536;2023-12-20T12:38:19;3.65;;;0.80;;
53654;SDS011;39558;52.028;8.536;2023-12-20T12:40:45;2.40;;;0.35;;
53654;SDS011;39558;52.028;8.536;2023-12-20T12:43:11;3.17;;;0.65;;
53654;SDS011;39558;52.028;8.536;2023-12-20T12:45:37;2.47;;;0.60;;
53654;SDS011;39558;52.028;8.536;2023-12-20T12:48:03;1.92;;;0.63;;
53654;SDS011;39558;52.028;8.536;2023-12-20T12:50:30;2.60;;;0.52;;
53654;SDS011;39558;52.028;8.536;2023-12-20T12:52:56;2.78;;;0.88;;
53654;SDS011;39558;52.028;8.536;2023-12-20T12:55:22;3.20;;;0.70;;
53654;SDS011;39558;52.028;8.536;2023-12-20T12:57:48;2.67;;;0.70;;
53654;SDS011;39558;52.028;8.536;2023-12-20T13:00:14;2.85;;;0.50;;
53654;SDS011;39558;52.028;8.536;2023-12-20T13:02:40;2.67;;;0.40;;
53654;SDS011;39558;52.028;8.536;2023-12-20T13:05:07;1.95;;;0.70;;
53654;SDS011;39558;52.028;8.536;2023-12-20T13:07:33;2.45;;;0.50;;
53654;SDS011;39558;52.028;8.536;2023-12-20T13:09:59;1.65;;;0.60;;
53654;SDS011;39558;52.028;8.536;2023-12-20T13:12:25;2.92;;;0.77;;
53654;SDS011;39558;52.028;8.536;2023-12-20T13:14:51;2.08;;;0.52;;
53654;SDS011;39558;52.028;8.536;2023-12-20T13:17:18;2.05;;;0.50;;
53654;SDS011;39558;52.028;8.536;2023-12-20T13:19:44;1.38;;;0.32;;
53654;SDS011;39558;52.028;8.536;2023-12-20T13:22:10;1.60;;;0.57;;
53654;SDS011;39558;52.028;8.536;2023-12-20T13:24:36;2.05;;;0.57;;
53654;SDS011;39558;52.028;8.536;2023-12-20T13:27:02;4.75;;;0.98;;
53654;SDS011;39558;52.028;8.536;2023-12-20T13:29:28;3.60;;;0.75;;
53654;SDS011;39558;52.028;8.536;2023-12-20T13:31:54;1.65;;;0.52;;
53654;SDS011;39558;52.028;8.536;2023-12-20T13:34:19;2.03;;;0.40;;
53654;SDS011;39558;52.028;8.536;2023-12-20T13:36:46;1.83;;;0.50;;
53654;SDS011;39558;52.028;8.536;2023-12-20T13:39:13;1.95;;;0.52;;
53654;SDS011;39558;52.028;8.536;2023-12-20T13:41:39;2.17;;;0.25;;
53654;SDS011;39558;52.028;8.536;2023-12-20T13:44:05;2.45;;;0.60;;
53654;SDS011;39558;52.028;8.536;2023-12-20T13:46:31;2.92;;;0.40;;
53654;SDS011;39558;52.028;8.536;2023-12-20T13:48:57;1.88;;;0.70;;
53654;SDS011;39558;52.028;8.536;2023-12-20T13:51:23;3.30;;;0.47;;
53654;SDS011;39558;52.028;8.536;2023-12-20T13:53:48;1.45;;;0.40;;
53654;SDS011;39558;52.028;8.536;2023-12-20T13:56:15;3.50;;;0.35;;
53654;SDS011;39558;52.028;8.536;2023-12-20T13:58:41;1.27;;;0.50;;
53654;SDS011;39558;52.028;8.536;2023-12-20T14:01:10;1.92;;;0.52;;
53654;SDS011;39558;52.028;8.536;2023-12-20T14:03:36;1.03;;;0.40;;
53654;SDS011;39558;52.028;8.536;2023-12-20T14:06:02;1.33;;;0.32;;
53654;SDS011;39558;52.028;8.536;2023-12-20T14:08:28;1.65;;;0.50;;
53654;SDS011;39558;52.028;8.536;2023-12-20T14:10:54;1.38;;;0.38;;
53654;SDS011;39558;52.028;8.536;2023-12-20T14:13:20;0.95;;;0.22;;
53654;SDS011;39558;52.028;8.536;2023-12-20T14:15:46;1.33;;;0.30;;
53654;SDS011;39558;52.028;8.536;2023-12-20T14:18:14;2.20;;;0.28;;
53654;SDS011;39558;52.028;8.536;2023-12-20T14:20:40;0.85;;;0.20;;
53654;SDS011;39558;52.028;8.536;2023-12-20T14:23:07;2.05;;;0.20;;
53654;SDS011;39558;52.028;8.536;2023-12-20T14:25:34;0.85;;;0.22;;
53654;SDS011;39558;52.028;8.536;2023-12-20T14:28:03;0.57;;;0.22;;
53654;SDS011;39558;52.028;8.536;2023-12-20T14:30:29;0.90;;;0.30;;
53654;SDS011;39558;52.028;8.536;2023-12-20T14:32:55;0.75;;;0.25;;
53654;SDS011;39558;52.028;8.536;2023-12-20T14:35:21;0.38;;;0.20;;
53654;SDS011;39558;52.028;8.536;2023-12-20T14:37:47;1.33;;;0.40;;
53654;SDS011;39558;52.028;8.536;2023-12-20T14:40:15;1.60;;;0.30;;
53654;SDS011;39558;52.028;8.536;2023-12-20T14:42:44;1.42;;;0.30;;
53654;SDS011;39558;52.028;8.536;2023-12-20T14:45:10;1.63;;;0.30;;
53654;SDS011;39558;52.028;8.536;2023-12-20T14:47:38;0.93;;;0.50;;